Time;durP1;ratioP1;P1;durP2;ratioP2;P2;SDS_P1;SDS_P2;PMS_P1;PMS_P2;Temp;Humidity;BMP_temperature;BMP_pressure;BME280_temperature;BME280_humidity;BME280_pressure;Samples;Min_cycle;Max_cycle;Signal;HPM_P1;HPM_P2
2023/07/22 00:01:20;;;;;;;20.77;9.00;;;;;;;14.85;94.78;101525.34;6090278;19;20014;-77
2023/07/22 00:03:25;;;;;;;17.35;8.77;;;;;;;14.88;93.37;101527.81;6099202;19;20010;-76
2023/07/22 00:05:31;;;;;;;19.58;8.35;;;;;;;14.85;93.27;101522.69;6099445;19;20376;-76
2023/07/22 00:07:36;;;;;;;16.45;8.10;;;;;;;14.82;94.33;101530.75;6099517;19;20014;-76
2023/07/22 00:09:41;;;;;;;16.35;7.82;;;;;;;14.75;93.14;101526.69;6101888;19;20515;-76
2023/07/22 00:11:47;;;;;;;17.50;7.05;;;;;;;14.74;93.96;101524.97;6098788;19;20010;-76
2023/07/22 00:13:51;;;;;;;18.15;8.05;;;;;;;14.65;94.85;101525.41;6099532;19;20084;-77
2023/07/22 00:15:59;;;;;;;20.13;8.20;;;;;;;14.58;94.21;101521.31;6087468;19;20013;-76
2023/07/22 00:18:05;;;;;;;17.23;8.60;;;;;;;14.55;94.96;101514.38;6100284;19;20621;-76
2023/07/22 00:20:13;;;;;;;19.58;8.15;;;;;;;14.56;93.92;101521.41;6096095;19;20011;-76
2023/07/22 00:22:20;;;;;;;18.85;8.27;;;;;;;14.52;93.95;101511.84;6096452;19;20010;-76
2023/07/22 00:24:25;;;;;;;18.67;9.75;;;;;;;14.49;94.57;101512.84;6096912;19;20034;-71
2023/07/22 00:26:33;;;;;;;20.00;8.73;;;;;;;14.49;94.26;101509.34;6098533;19;20024;-71
2023/07/22 00:28:38;;;;;;;17.75;7.97;;;;;;;14.47;93.99;101512.06;6097218;19;20010;-71
2023/07/22 00:30:44;;;;;;;16.90;8.25;;;;;;;14.42;93.57;101514.06;6100742;19;20010;-72
2023/07/22 00:32:51;;;;;;;18.00;7.68;;;;;;;14.35;94.15;101511.75;6102217;19;20470;-70
2023/07/22 00:34:56;;;;;;;18.50;7.35;;;;;;;14.30;94.45;101512.00;6102834;19;20006;-70
2023/07/22 00:37:01;;;;;;;19.05;8.15;;;;;;;14.27;94.73;101507.69;6099077;19;20743;-71
2023/07/22 00:39:07;;;;;;;15.60;7.60;;;;;;;14.25;94.37;101506.06;6103024;19;20204;-71
2023/07/22 00:41:12;;;;;;;15.25;7.18;;;;;;;14.29;94.24;101515.53;6101478;19;20023;-70
2023/07/22 00:43:18;;;;;;;15.52;7.88;;;;;;;14.25;94.39;101504.25;6094760;19;20011;-71
2023/07/22 00:45:22;;;;;;;19.17;8.02;;;;;;;14.15;94.28;101508.25;6104559;19;20034;-70
2023/07/22 00:47:28;;;;;;;18.15;7.95;;;;;;;14.19;94.17;101506.31;6102388;19;20019;-70
2023/07/22 00:49:37;;;;;;;20.88;8.90;;;;;;;14.16;93.93;101507.31;6101941;19;20010;-71
2023/07/22 00:51:42;;;;;;;15.57;7.85;;;;;;;14.18;94.91;101504.59;6099101;19;20041;-70
2023/07/22 00:53:47;;;;;;;20.52;6.82;;;;;;;14.17;93.92;101503.75;6097490;19;20018;-70
2023/07/22 00:55:52;;;;;;;16.23;7.38;;;;;;;14.20;94.00;101500.13;6103758;19;20011;-70
2023/07/22 00:57:58;;;;;;;14.48;7.55;;;;;;;14.19;93.41;101495.72;6100956;19;20007;-71
2023/07/22 01:00:05;;;;;;;17.38;7.72;;;;;;;14.20;93.97;101492.19;6099099;19;20223;-70
2023/07/22 01:02:11;;;;;;;14.80;7.38;;;;;;;14.20;93.56;101498.31;6097878;19;20095;-71
2023/07/22 01:04:18;;;;;;;15.90;7.88;;;;;;;14.17;93.08;101492.31;6101534;19;20077;-72
2023/07/22 01:06:29;;;;;;;16.55;7.65;;;;;;;14.21;93.37;101496.53;6101167;19;20325;-71
2023/07/22 01:08:33;;;;;;;16.08;7.07;;;;;;;14.19;92.25;101491.34;6096012;19;20678;-71
2023/07/22 01:10:40;;;;;;;18.90;7.25;;;;;;;14.16;92.97;101483.50;6098861;19;20011;-69
2023/07/22 01:12:47;;;;;;;13.73;6.53;;;;;;;14.16;92.55;101487.94;6101159;19;20457;-70
2023/07/22 01:14:52;;;;;;;13.80;6.40;;;;;;;14.15;92.80;101487.09;6096135;19;20105;-69
2023/07/22 01:16:59;;;;;;;14.75;5.97;;;;;;;14.16;93.25;101482.66;6100265;19;20498;-70
2023/07/22 01:19:07;;;;;;;13.73;6.03;;;;;;;14.12;92.69;101486.38;6101920;19;20050;-69
2023/07/22 01:21:12;;;;;;;13.30;5.65;;;;;;;14.15;93.00;101486.25;6102050;19;20097;-70
2023/07/22 01:23:20;;;;;;;14.82;6.15;;;;;;;14.15;92.83;101479.16;6088220;19;20015;-70
2023/07/22 01:25:26;;;;;;;12.70;6.03;;;;;;;14.17;92.21;101476.47;6095948;19;20378;-70
2023/07/22 01:27:34;;;;;;;15.05;6.90;;;;;;;14.19;92.82;101479.88;6099189;19;20039;-70
2023/07/22 01:29:40;;;;;;;15.40;5.75;;;;;;;14.16;92.87;101480.88;6100307;19;20023;-70
2023/07/22 01:31:50;;;;;;;16.83;6.35;;;;;;;14.11;92.55;101469.66;6098765;19;20113;-70
2023/07/22 01:33:55;;;;;;;12.65;6.07;;;;;;;14.12;92.25;101475.81;6098514;19;20015;-70
2023/07/22 01:36:01;;;;;;;13.93;6.00;;;;;;;14.10;92.05;101469.72;6100994;19;20402;-70
2023/07/22 01:38:07;;;;;;;13.02;5.38;;;;;;;14.10;92.42;101461.81;6101967;19;20014;-70
2023/07/22 01:40:15;;;;;;;11.85;5.05;;;;;;;14.07;92.14;101473.38;6101595;19;20013;-70
2023/07/22 01:42:20;;;;;;;14.57;6.07;;;;;;;14.10;92.63;101475.03;6093247;19;20106;-71
2023/07/22 01:44:25;;;;;;;11.20;5.03;;;;;;;14.09;92.42;101460.09;6101228;19;20010;-70
2023/07/22 01:46:31;;;;;;;12.25;5.88;;;;;;;14.11;92.59;101469.66;6101502;19;20007;-71
2023/07/22 01:48:37;;;;;;;11.05;5.22;;;;;;;14.12;92.73;101470.53;6100643;19;20003;-71
2023/07/22 01:50:42;;;;;;;11.70;5.35;;;;;;;14.10;92.98;101467.09;6097325;19;20007;-70
2023/07/22 01:52:48;;;;;;;12.73;6.05;;;;;;;14.02;92.18;101460.34;6097294;19;20018;-70
2023/07/22 01:54:53;;;;;;;14.20;5.15;;;;;;;14.03;92.15;101467.38;6100645;19;20017;-71
2023/07/22 01:57:01;;;;;;;11.93;5.68;;;;;;;14.00;92.34;101456.06;6099195;19;20003;-71
2023/07/22 01:59:03;;;;;;;11.82;5.78;;;;;;;13.98;92.19;101456.16;6090150;19;20006;-70
2023/07/22 02:01:13;;;;;;;14.30;5.88;;;;;;;13.96;92.07;101458.00;6099399;19;20422;-70
2023/07/22 02:03:20;;;;;;;10.82;5.00;;;;;;;13.94;92.27;101462.50;6098255;19;20073;-70
2023/07/22 02:05:27;;;;;;;10.18;4.43;;;;;;;13.92;92.12;101455.56;6097738;19;20086;-70
2023/07/22 02:07:32;;;;;;;11.88;5.85;;;;;;;13.93;92.78;101444.94;6100260;19;20499;-70
2023/07/22 02:09:39;;;;;;;12.32;5.03;;;;;;;13.94;93.39;101453.72;6097660;19;20022;-70
2023/07/22 02:11:44;;;;;;;12.32;5.95;;;;;;;13.92;92.98;101448.47;6095733;19;20010;-70
2023/07/22 02:13:51;;;;;;;12.48;5.63;;;;;;;13.91;92.73;101443.28;6098827;19;20014;-70
2023/07/22 02:15:54;;;;;;;12.25;5.10;;;;;;;13.87;93.12;101447.81;6091307;19;20631;-70
2023/07/22 02:17:59;;;;;;;10.70;5.07;;;;;;;13.87;92.48;101452.25;6100432;19;20423;-72
2023/07/22 02:20:04;;;;;;;13.77;5.70;;;;;;;13.84;92.96;101451.47;6098410;19;20145;-70
2023/07/22 02:22:10;;;;;;;12.77;5.43;;;;;;;13.86;92.70;101450.56;6097676;19;20027;-71
2023/07/22 02:24:18;;;;;;;8.38;4.65;;;;;;;13.86;94.07;101447.91;6101264;19;20416;-72
2023/07/22 02:26:23;;;;;;;13.52;4.78;;;;;;;13.81;93.04;101442.81;6099088;19;20007;-71
2023/07/22 02:28:29;;;;;;;11.35;4.80;;;;;;;13.78;93.19;101440.31;6097857;19;20190;-70
2023/07/22 02:30:37;;;;;;;12.48;5.05;;;;;;;13.73;92.70;101448.44;6092842;19;20006;-72
2023/07/22 02:32:43;;;;;;;9.85;4.45;;;;;;;13.71;92.85;101446.78;6100218;19;20010;-70
2023/07/22 02:34:48;;;;;;;11.02;5.50;;;;;;;13.71;93.25;101433.59;6099161;19;20011;-69
2023/07/22 02:36:53;;;;;;;11.68;4.97;;;;;;;13.63;92.15;101436.56;6098837;19;20015;-70
2023/07/22 02:38:56;;;;;;;10.55;4.43;;;;;;;13.61;92.62;101434.00;6101339;19;20014;-69
2023/07/22 02:41:07;;;;;;;7.25;4.47;;;;;;;13.64;93.24;101433.00;6099447;19;20006;-69
2023/07/22 02:43:12;;;;;;;11.38;4.55;;;;;;;13.64;93.18;101435.66;6099449;19;20010;-70
2023/07/22 02:45:20;;;;;;;11.25;4.57;;;;;;;13.69;93.68;101427.50;6098568;19;20470;-70
2023/07/22 02:47:28;;;;;;;9.48;4.03;;;;;;;13.68;93.52;101431.09;6099297;19;20031;-71
2023/07/22 02:49:33;;;;;;;11.52;4.35;;;;;;;13.65;93.63;101429.44;6094817;19;20404;-71
2023/07/22 02:51:40;;;;;;;9.52;4.53;;;;;;;13.65;93.85;101433.88;6099122;19;20030;-71
2023/07/22 02:53:48;;;;;;;10.68;4.47;;;;;;;13.65;93.53;101428.59;6096806;19;20002;-71
2023/07/22 02:55:53;;;;;;;9.77;4.50;;;;;;;13.64;93.44;101426.84;6100619;19;20027;-71
2023/07/22 02:57:58;;;;;;;11.25;4.55;;;;;;;13.66;93.22;101428.50;6102233;19;20022;-71
2023/07/22 03:00:04;;;;;;;9.90;4.43;;;;;;;13.65;92.73;101425.94;6097554;19;20393;-71
2023/07/22 03:02:14;;;;;;;9.00;3.90;;;;;;;13.67;93.06;101424.09;6096663;19;20495;-72
2023/07/22 03:04:22;;;;;;;8.55;4.30;;;;;;;13.68;93.33;101425.81;6097861;19;20021;-68
2023/07/22 03:06:28;;;;;;;10.38;3.88;;;;;;;13.72;92.78;101427.41;6092707;19;20047;-70
2023/07/22 03:08:33;;;;;;;9.05;4.43;;;;;;;13.71;92.94;101421.22;6090179;19;20010;-70
2023/07/22 03:10:40;;;;;;;8.13;3.60;;;;;;;13.71;92.39;101423.03;6097034;19;20595;-72
2023/07/22 03:12:47;;;;;;;9.95;3.83;;;;;;;13.73;92.33;101423.81;6096184;19;20273;-69
2023/07/22 03:14:52;;;;;;;10.98;4.40;;;;;;;13.76;93.53;101431.59;6096798;19;20018;-70
2023/07/22 03:16:59;;;;;;;9.32;4.00;;;;;;;13.73;92.48;101431.75;6090450;19;20318;-70
2023/07/22 03:19:04;;;;;;;11.35;3.97;;;;;;;13.74;92.34;101430.81;6096416;19;20014;-70
2023/07/22 03:21:10;;;;;;;9.32;3.80;;;;;;;13.75;91.78;101430.75;6096938;19;20033;-71
2023/07/22 03:23:15;;;;;;;10.65;3.83;;;;;;;13.77;92.11;101433.31;6091830;19;20038;-72
2023/07/22 03:25:22;;;;;;;9.88;4.38;;;;;;;13.75;92.33;101436.03;6096410;19;20010;-71
2023/07/22 03:27:29;;;;;;;11.05;3.80;;;;;;;13.77;92.57;101433.31;6097458;19;20006;-71
2023/07/22 03:29:34;;;;;;;11.45;4.22;;;;;;;13.73;92.19;101431.75;6096567;19;20024;-71
2023/07/22 03:31:40;;;;;;;10.38;3.88;;;;;;;13.71;91.62;101436.22;6096312;19;20010;-72
2023/07/22 03:33:46;;;;;;;10.35;4.60;;;;;;;13.69;92.92;101446.88;6087550;19;20037;-69
2023/07/22 03:35:51;;;;;;;9.95;4.38;;;;;;;13.66;92.50;101444.34;6093957;19;20053;-70
2023/07/22 03:37:59;;;;;;;9.20;3.65;;;;;;;13.69;92.51;101446.00;6091988;19;22590;-70
2023/07/22 03:40:06;;;;;;;9.98;4.15;;;;;;;13.65;92.61;101453.19;6094122;19;20092;-70
2023/07/22 03:42:12;;;;;;;10.32;4.35;;;;;;;13.64;93.04;101446.22;6097006;19;20015;-70
2023/07/22 03:44:17;;;;;;;10.02;3.92;;;;;;;13.67;93.74;101447.88;6095778;19;19998;-71
2023/07/22 03:46:21;;;;;;;7.90;3.88;;;;;;;13.67;93.67;101443.44;6095245;19;20039;-70
2023/07/22 03:48:28;;;;;;;8.93;3.83;;;;;;;13.69;94.04;101444.25;6095268;19;20563;-70
2023/07/22 03:50:33;;;;;;;10.23;4.05;;;;;;;13.72;93.59;101444.09;6091811;19;20010;-69
2023/07/22 03:52:39;;;;;;;11.90;4.82;;;;;;;13.73;93.22;101442.31;6094212;19;20077;-70
2023/07/22 03:54:48;;;;;;;11.23;4.63;;;;;;;13.79;93.82;101452.59;6081786;19;20324;-71
2023/07/22 03:56:53;;;;;;;12.20;4.55;;;;;;;13.80;93.87;101444.63;6095355;19;20365;-71
2023/07/22 03:58:58;;;;;;;10.98;4.32;;;;;;;13.82;93.56;101447.16;6097789;19;20013;-71
2023/07/22 04:01:03;;;;;;;12.48;5.32;;;;;;;13.88;94.67;101452.19;6093807;19;20494;-70
2023/07/22 04:03:11;;;;;;;15.80;5.63;;;;;;;13.93;94.86;101449.34;6096376;19;20018;-71
2023/07/22 04:05:16;;;;;;;14.00;5.80;;;;;;;13.95;94.74;101439.56;6095812;19;20003;-71
2023/07/22 04:07:22;;;;;;;16.73;6.07;;;;;;;13.97;94.76;101433.28;6099265;19;20007;-70
2023/07/22 04:09:30;;;;;;;13.48;5.93;;;;;;;14.03;94.62;101437.44;6099804;19;20002;-71
2023/07/22 04:11:38;;;;;;;21.45;7.85;;;;;;;14.07;95.35;101430.22;6094680;19;20029;-70
2023/07/22 04:13:43;;;;;;;15.25;6.97;;;;;;;14.11;95.94;101429.16;6096639;19;20019;-70
2023/07/22 04:15:48;;;;;;;17.63;8.07;;;;;;;14.20;95.93;101431.38;6094491;19;20417;-76
2023/07/22 04:17:53;;;;;;;24.08;8.23;;;;;;;14.26;96.92;101431.09;6101690;19;20400;-77
2023/07/22 04:19:58;;;;;;;28.10;9.93;;;;;;;14.29;96.96;101428.28;6101833;19;20014;-76
2023/07/22 04:22:04;;;;;;;24.27;8.75;;;;;;;14.38;97.45;101430.53;6097769;19;20087;-76
2023/07/22 04:24:10;;;;;;;25.92;9.25;;;;;;;14.41;96.95;101421.59;6096394;19;20032;-77
2023/07/22 04:26:15;;;;;;;28.25;11.10;;;;;;;14.53;97.85;101423.66;6100843;19;20011;-77
2023/07/22 04:28:20;;;;;;;24.75;11.23;;;;;;;14.56;97.90;101428.84;6096372;19;20022;-77
2023/07/22 04:30:25;;;;;;;28.73;11.80;;;;;;;14.62;97.98;101428.53;6097790;19;20081;-76
2023/07/22 04:32:31;;;;;;;30.75;12.48;;;;;;;14.65;98.83;101422.25;6103183;19;20056;-76
2023/07/22 04:34:36;;;;;;;34.17;13.20;;;;;;;14.68;98.51;101428.22;6100694;19;20531;-76
2023/07/22 04:36:38;;;;;;;31.50;12.07;;;;;;;14.74;98.62;101434.16;6099310;19;20011;-77
2023/07/22 04:38:47;;;;;;;26.85;12.55;;;;;;;14.77;98.82;101442.81;6101526;19;20528;-77
2023/07/22 04:40:52;;;;;;;40.20;14.10;;;;;;;14.84;98.75;101436.28;6099040;19;20645;-76
2023/07/22 04:42:57;;;;;;;31.98;13.90;;;;;;;14.87;98.50;101433.47;6100787;19;20014;-76
2023/07/22 04:45:06;;;;;;;36.10;13.35;;;;;;;14.92;98.69;101430.63;6098903;19;20079;-77
2023/07/22 04:47:11;;;;;;;40.28;13.88;;;;;;;14.95;99.06;101434.91;6093560;19;20489;-76
2023/07/22 04:49:17;;;;;;;32.83;13.85;;;;;;;15.01;98.68;101432.81;6096675;19;20006;-76
2023/07/22 04:51:23;;;;;;;31.13;13.82;;;;;;;15.01;98.82;101429.28;6096963;19;20010;-77
2023/07/22 04:53:28;;;;;;;33.65;12.52;;;;;;;15.07;98.29;101436.94;6099041;19;20395;-76
2023/07/22 04:55:34;;;;;;;31.58;14.63;;;;;;;15.12;98.64;101432.28;6098459;19;20090;-77
2023/07/22 04:57:43;;;;;;;33.88;14.05;;;;;;;15.08;98.83;101438.66;6098700;19;20003;-77
2023/07/22 04:59:48;;;;;;;33.13;13.63;;;;;;;15.18;98.42;101434.63;6098475;19;20035;-78
2023/07/22 05:01:56;;;;;;;33.70;13.23;;;;;;;15.15;98.95;101438.28;6099204;19;20098;-76
2023/07/22 05:04:01;;;;;;;31.77;13.80;;;;;;;15.22;98.36;101433.53;6102300;19;20867;-76
2023/07/22 05:06:08;;;;;;;33.60;14.48;;;;;;;15.21;98.14;101429.16;6093981;19;20046;-76
2023/07/22 05:08:13;;;;;;;30.73;12.20;;;;;;;15.30;98.07;101426.06;6097220;19;20011;-76
2023/07/22 05:10:19;;;;;;;34.95;14.30;;;;;;;15.27;98.30;101430.63;6099287;19;20471;-77
2023/07/22 05:12:24;;;;;;;31.80;12.55;;;;;;;15.33;98.13;101440.94;6097236;19;20514;-77
2023/07/22 05:14:30;;;;;;;34.92;12.40;;;;;;;15.34;97.88;101432.91;6100255;19;20334;-78
2023/07/22 05:16:35;;;;;;;34.20;13.60;;;;;;;15.32;98.41;101429.50;6097906;19;20462;-72
2023/07/22 05:18:42;;;;;;;43.85;14.23;;;;;;;15.37;98.11;101438.03;6098622;19;20093;-71
2023/07/22 05:20:47;;;;;;;33.85;13.35;;;;;;;15.40;98.01;101425.56;6096415;19;20006;-69
2023/07/22 05:22:52;;;;;;;35.05;13.57;;;;;;;15.42;98.12;101424.56;6095248;19;20014;-69
2023/07/22 05:24:58;;;;;;;33.10;14.05;;;;;;;15.42;98.10;101429.84;6101658;19;20006;-70
2023/07/22 05:27:03;;;;;;;31.10;12.88;;;;;;;15.46;97.96;101425.28;6102700;19;20010;-70
2023/07/22 05:29:13;;;;;;;33.85;12.73;;;;;;;15.55;97.76;101425.63;6098455;19;20014;-70
2023/07/22 05:31:19;;;;;;;34.67;14.40;;;;;;;15.56;97.52;101426.50;6098803;19;20094;-70
2023/07/22 05:33:24;;;;;;;32.30;13.35;;;;;;;15.61;97.53;101420.97;6096120;19;20014;-70
2023/07/22 05:35:31;;;;;;;36.40;13.77;;;;;;;15.69;97.23;101419.69;6098809;19;20015;-72
2023/07/22 05:37:40;;;;;;;28.08;12.30;;;;;;;15.74;97.16;101422.91;6097832;19;20010;-69
2023/07/22 05:39:48;;;;;;;32.80;12.00;;;;;;;15.77;96.92;101420.13;6087847;19;20018;-70
2023/07/22 05:41:55;;;;;;;28.70;13.20;;;;;;;15.88;96.74;101416.91;6093880;19;20017;-71
2023/07/22 05:44:02;;;;;;;34.13;13.15;;;;;;;15.95;96.29;101418.25;6097853;19;20014;-71
2023/07/22 05:46:07;;;;;;;33.53;13.85;;;;;;;15.85;95.63;101414.41;6099117;19;20517;-70
2023/07/22 05:48:12;;;;;;;28.92;12.63;;;;;;;16.05;95.82;101413.31;6098370;19;20014;-71
2023/07/22 05:50:18;;;;;;;33.45;12.00;;;;;;;16.13;95.56;101418.22;6098157;19;20035;-71
2023/07/22 05:52:23;;;;;;;32.97;11.68;;;;;;;16.13;95.47;101419.06;6097839;19;20060;-70
2023/07/22 05:54:28;;;;;;;27.60;12.40;;;;;;;16.21;95.43;101419.50;6091897;19;20014;-70
2023/07/22 05:56:33;;;;;;;31.70;12.15;;;;;;;16.33;94.39;101422.44;6101042;19;20014;-70
2023/07/22 05:58:40;;;;;;;26.95;11.50;;;;;;;16.37;94.16;101414.19;6097693;19;20550;-70
2023/07/22 06:00:46;;;;;;;30.88;11.95;;;;;;;16.28;94.69;101427.13;6098005;19;20015;-70
2023/07/22 06:02:52;;;;;;;29.85;13.13;;;;;;;16.36;94.21;101409.84;6099398;19;20440;-71
2023/07/22 06:04:58;;;;;;;30.25;12.35;;;;;;;16.33;94.76;101414.47;6099741;19;20011;-71
2023/07/22 06:07:03;;;;;;;30.38;12.13;;;;;;;16.29;94.59;101426.19;6101532;19;20002;-71
2023/07/22 06:09:11;;;;;;;28.67;12.38;;;;;;;16.35;94.39;101420.53;6099395;19;20494;-70
2023/07/22 06:11:17;;;;;;;23.38;10.13;;;;;;;16.40;93.95;101416.72;6097150;19;20006;-71
2023/07/22 06:13:22;;;;;;;27.90;11.02;;;;;;;16.40;93.83;101418.47;6097398;19;20013;-70
2023/07/22 06:15:28;;;;;;;22.83;10.77;;;;;;;16.39;94.27;101427.38;6091969;19;20018;-70
2023/07/22 06:17:33;;;;;;;22.65;11.88;;;;;;;16.40;94.48;101416.72;6090036;19;20146;-70
2023/07/22 06:19:40;;;;;;;26.83;11.73;;;;;;;16.37;93.83;101406.25;6094706;19;20396;-71
2023/07/22 06:21:48;;;;;;;28.13;11.57;;;;;;;16.42;94.48;101411.31;6098623;19;20018;-71
2023/07/22 06:23:52;;;;;;;28.10;10.73;;;;;;;16.61;93.71;101413.78;6098775;19;20070;-76
2023/07/22 06:26:00;;;;;;;27.80;10.80;;;;;;;16.70;93.43;101417.72;6099211;19;20349;-76
2023/07/22 06:28:07;;;;;;;27.10;11.60;;;;;;;16.78;92.99;101415.50;6094917;19;19999;-76
2023/07/22 06:30:13;;;;;;;23.88;11.10;;;;;;;16.91;92.50;101410.34;6098385;19;20007;-77
2023/07/22 06:32:17;;;;;;;27.95;11.90;;;;;;;16.91;92.11;101405.03;6092796;19;20612;-76
2023/07/22 06:34:22;;;;;;;29.17;11.48;;;;;;;16.83;92.21;101405.50;6098569;19;20007;-76
2023/07/22 06:36:31;;;;;;;25.98;10.48;;;;;;;16.78;92.21;101408.41;6100177;19;20326;-76
2023/07/22 06:38:36;;;;;;;25.92;10.05;;;;;;;17.03;91.53;101409.63;6098340;19;20003;-76
2023/07/22 06:40:41;;;;;;;29.42;10.23;;;;;;;17.19;91.35;101407.75;6098241;19;21753;-75
2023/07/22 06:42:46;;;;;;;24.58;10.40;;;;;;;17.08;90.60;101413.72;6095837;19;20007;-77
2023/07/22 06:44:51;;;;;;;22.70;10.38;;;;;;;17.29;90.84;101405.44;6099214;19;20027;-75
2023/07/22 06:46:56;;;;;;;21.08;10.75;;;;;;;17.39;90.21;101401.28;6095757;19;20316;-75
2023/07/22 06:49:02;;;;;;;21.13;9.50;;;;;;;17.32;89.77;101402.59;6091662;19;20010;-75
2023/07/22 06:51:07;;;;;;;23.90;11.75;;;;;;;17.38;89.97;101396.94;6096939;19;20014;-76
2023/07/22 06:53:14;;;;;;;27.38;10.90;;;;;;;17.38;89.72;101396.03;6095766;19;20015;-73
2023/07/22 06:55:20;;;;;;;26.10;11.90;;;;;;;17.40;89.52;101400.31;6095836;19;20023;-76
2023/07/22 06:57:25;;;;;;;24.08;10.48;;;;;;;17.42;89.79;101403.75;6096375;19;20049;-75
2023/07/22 06:59:33;;;;;;;22.75;9.85;;;;;;;17.42;90.19;101403.75;6097958;19;20007;-74
2023/07/22 07:01:42;;;;;;;23.27;10.27;;;;;;;17.57;90.13;101398.47;6097346;19;20488;-76
2023/07/22 07:03:47;;;;;;;21.50;9.38;;;;;;;17.49;89.02;101405.09;6097451;19;20396;-76
2023/07/22 07:05:56;;;;;;;31.67;11.65;;;;;;;17.52;89.71;101409.38;6093582;19;20260;-75
2023/07/22 07:08:01;;;;;;;25.98;10.52;;;;;;;17.61;88.48;101413.25;6087849;19;20021;-76
2023/07/22 07:10:06;;;;;;;24.23;11.20;;;;;;;17.61;88.23;101413.25;6096327;19;20047;-75
2023/07/22 07:12:12;;;;;;;23.27;10.70;;;;;;;17.69;88.04;101418.97;6096565;19;20003;-76
2023/07/22 07:14:17;;;;;;;21.33;11.00;;;;;;;17.64;87.90;101418.38;6094696;19;20655;-75
2023/07/22 07:16:26;;;;;;;20.88;10.73;;;;;;;17.69;88.82;101417.19;6087079;19;20003;-75
2023/07/22 07:18:34;;;;;;;23.20;10.88;;;;;;;17.69;87.84;101410.97;6093825;19;20018;-75
2023/07/22 07:20:40;;;;;;;27.00;11.55;;;;;;;17.78;87.90;101413.09;6093548;19;20426;-76
2023/07/22 07:22:48;;;;;;;22.98;10.77;;;;;;;17.82;87.81;101414.63;6095469;19;20029;-75
2023/07/22 07:24:53;;;;;;;23.05;11.02;;;;;;;17.76;87.27;101413.19;6093465;19;20011;-76
2023/07/22 07:26:55;;;;;;;27.63;11.45;;;;;;;17.66;87.25;101416.50;6098912;19;20002;-76
2023/07/22 07:29:00;;;;;;;26.55;10.77;;;;;;;17.68;87.42;101409.28;6098229;19;20562;-75
2023/07/22 07:31:06;;;;;;;25.63;12.00;;;;;;;17.75;87.68;101405.31;6094401;19;20331;-75
2023/07/22 07:33:13;;;;;;;21.00;10.82;;;;;;;17.67;87.29;101410.25;6094110;19;20409;-75
2023/07/22 07:35:19;;;;;;;25.05;11.43;;;;;;;17.67;87.28;101400.47;6098175;19;20036;-75
2023/07/22 07:37:25;;;;;;;23.92;10.13;;;;;;;17.63;87.16;101408.72;6102528;19;20011;-76
2023/07/22 07:39:33;;;;;;;26.35;11.68;;;;;;;17.64;86.96;101408.63;6101938;19;20031;-77
2023/07/22 07:41:41;;;;;;;19.17;10.00;;;;;;;17.84;87.02;101407.41;6108012;19;20027;-75
2023/07/22 07:43:46;;;;;;;20.83;10.73;;;;;;;17.94;86.01;101405.91;6108021;19;20039;-75
2023/07/22 07:45:52;;;;;;;23.60;10.23;;;;;;;18.19;85.66;101399.91;6094987;19;20035;-75
2023/07/22 07:47:59;;;;;;;25.05;11.43;;;;;;;18.25;83.88;101393.34;6098867;19;20007;-75
2023/07/22 07:50:11;;;;;;;28.10;10.38;;;;;;;18.33;84.01;101401.69;6097149;19;20021;-75
2023/07/22 07:52:16;;;;;;;18.63;10.98;;;;;;;18.58;83.01;101394.75;6095321;19;20008;-75
2023/07/22 07:54:21;;;;;;;23.08;10.27;;;;;;;18.76;81.32;101396.25;6098186;19;20006;-70
2023/07/22 07:56:27;;;;;;;18.73;9.35;;;;;;;18.79;80.00;101397.84;6096515;19;20050;-70
2023/07/22 07:58:30;;;;;;;23.35;10.68;;;;;;;18.85;78.41;101397.44;6100651;19;20018;-70
2023/07/22 08:00:35;;;;;;;18.50;9.65;;;;;;;19.02;78.50;101396.31;6097262;19;20015;-71
2023/07/22 08:02:40;;;;;;;20.75;9.23;;;;;;;19.25;77.43;101398.28;6104520;19;20014;-70
2023/07/22 08:04:46;;;;;;;16.40;8.57;;;;;;;19.18;76.57;101402.31;6102039;19;20376;-70
2023/07/22 08:06:54;;;;;;;18.58;7.68;;;;;;;19.16;76.38;101396.22;6102243;19;20002;-72
2023/07/22 08:08:59;;;;;;;16.88;6.93;;;;;;;19.48;74.46;101394.06;6095174;19;20426;-70
2023/07/22 08:11:08;;;;;;;18.55;7.35;;;;;;;19.57;73.03;101379.22;6098672;19;20474;-71
2023/07/22 08:13:13;;;;;;;25.48;9.85;;;;;;;19.99;72.91;101382.50;6101667;19;20462;-71
2023/07/22 08:15:19;;;;;;;15.32;6.55;;;;;;;20.28;70.70;101396.41;6098972;19;20007;-71
2023/07/22 08:17:21;;;;;;;12.75;5.75;;;;;;;20.24;70.08;101378.91;6101797;19;20455;-76
2023/07/22 08:19:29;;;;;;;17.58;6.07;;;;;;;20.10;69.58;101382.59;6103139;19;20011;-75
2023/07/22 08:21:32;;;;;;;11.52;5.25;;;;;;;19.82;70.04;101382.84;6103149;19;20499;-74
2023/07/22 08:23:40;;;;;;;9.23;4.63;;;;;;;19.86;70.17;101384.34;6107212;19;20014;-74
2023/07/22 08:25:46;;;;;;;11.07;4.85;;;;;;;19.72;68.80;101394.19;6100596;19;20026;-70
2023/07/22 08:27:51;;;;;;;10.02;4.72;;;;;;;19.91;68.63;101398.22;6102720;19;20024;-70
2023/07/22 08:29:57;;;;;;;11.43;5.03;;;;;;;20.00;68.88;101389.53;6103402;19;20046;-70
2023/07/22 08:32:02;;;;;;;7.82;4.05;;;;;;;20.07;68.24;101388.16;6102588;19;20006;-71
2023/07/22 08:34:08;;;;;;;10.55;4.30;;;;;;;19.81;68.68;101394.50;6090312;19;19999;-71
2023/07/22 08:36:13;;;;;;;7.55;4.18;;;;;;;20.11;68.35;101388.78;6098121;19;20006;-69
2023/07/22 08:38:19;;;;;;;8.40;4.20;;;;;;;20.31;67.17;101387.34;6100293;19;20134;-70
2023/07/22 08:40:28;;;;;;;9.05;4.03;;;;;;;20.83;63.95;101388.88;6098706;19;20003;-71
2023/07/22 08:42:36;;;;;;;10.23;4.40;;;;;;;20.94;64.11;101382.72;6098322;19;20064;-71
2023/07/22 08:44:45;;;;;;;8.88;3.50;;;;;;;20.94;63.74;101388.06;6097120;19;20038;-71
2023/07/22 08:46:58;;;;;;;9.70;3.80;;;;;;;20.73;62.98;101379.84;6098504;19;20470;-70
2023/07/22 08:49:04;;;;;;;7.80;3.20;;;;;;;20.39;62.32;101379.63;6090587;19;20525;-71
2023/07/22 08:51:15;;;;;;;5.30;3.25;;;;;;;20.60;62.54;101387.91;6089522;19;20043;-70
2023/07/22 08:53:21;;;;;;;10.23;3.40;;;;;;;20.45;62.07;101389.84;6087234;19;20013;-70
2023/07/22 08:55:29;;;;;;;6.45;3.28;;;;;;;20.30;64.17;101378.50;6081081;19;20095;-69
2023/07/22 08:57:38;;;;;;;9.88;3.95;;;;;;;20.79;63.15;101379.38;6095523;19;20666;-69
2023/07/22 08:59:44;;;;;;;8.50;3.60;;;;;;;21.17;62.56;101376.47;6094434;19;20622;-70
2023/07/22 09:01:51;;;;;;;7.53;3.85;;;;;;;20.81;62.14;101382.78;6102255;19;20059;-71
2023/07/22 09:03:58;;;;;;;9.63;3.78;;;;;;;20.72;61.34;101383.44;6105858;19;20011;-72
2023/07/22 09:06:04;;;;;;;6.38;3.75;;;;;;;20.76;62.41;101384.94;6098584;19;20543;-75
2023/07/22 09:08:12;;;;;;;8.85;3.70;;;;;;;20.51;62.43;101385.88;6101675;19;20540;-75
2023/07/22 09:10:16;;;;;;;6.88;3.55;;;;;;;20.21;63.04;101391.63;6090891;19;20003;-77
2023/07/22 09:12:24;;;;;;;7.40;3.92;;;;;;;20.43;63.59;101388.25;6096555;19;20011;-70
2023/07/22 09:14:33;;;;;;;7.72;3.45;;;;;;;20.60;61.77;101380.72;6092881;19;20024;-75
2023/07/22 09:16:47;;;;;;;7.55;3.67;;;;;;;20.43;62.24;101378.41;6100810;19;20006;-74
2023/07/22 09:18:53;;;;;;;7.95;3.58;;;;;;;20.50;61.46;101384.16;6095400;19;20398;-69
2023/07/22 09:20:59;;;;;;;7.68;3.03;;;;;;;20.67;59.52;101373.13;6098470;19;20022;-75
2023/07/22 09:23:06;;;;;;;6.72;3.45;;;;;;;20.76;60.28;101368.91;6099965;19;20003;-75
2023/07/22 09:25:23;;;;;;;8.43;3.47;;;;;;;20.47;61.15;101376.38;6081681;19;20457;-74
2023/07/22 09:27:43;;;;;;;6.05;3.10;;;;;;;20.36;61.38;101370.03;6103803;19;20031;-70
2023/07/22 09:29:49;;;;;;;5.78;3.03;;;;;;;20.25;61.49;101374.41;6104423;19;20011;-71
2023/07/22 09:31:56;;;;;;;6.43;3.53;;;;;;;20.16;61.81;101378.63;6096710;19;20015;-69
2023/07/22 09:34:14;;;;;;;6.13;3.20;;;;;;;19.76;62.87;101385.97;6100803;19;20006;-72
2023/07/22 09:36:20;;;;;;;10.27;3.65;;;;;;;19.65;62.84;101384.00;6104052;19;20579;-72
2023/07/22 09:38:26;;;;;;;7.20;3.30;;;;;;;19.61;62.05;101379.84;6094180;19;20002;-75
2023/07/22 09:40:32;;;;;;;8.57;3.45;;;;;;;19.42;62.38;101382.94;6104316;19;20038;-75